createdAt,value
2022-08-23T06:11:28.263Z,2.97
2022-08-23T06:13:56.537Z,3.00
2022-08-23T06:16:25.824Z,3.17
2022-08-23T06:18:52.915Z,2.70
2022-08-23T06:21:19.956Z,3.00
2022-08-23T06:23:48.328Z,2.67
2022-08-23T06:26:16.983Z,3.30
2022-08-23T06:28:51.125Z,3.00
2022-08-23T06:31:39.084Z,2.90
2022-08-23T06:34:06.085Z,3.00
2022-08-23T06:36:33.931Z,2.58
2022-08-23T06:39:05.102Z,2.60
2022-08-23T06:41:32.089Z,2.35
2022-08-23T06:43:59.025Z,2.43
2022-08-23T06:46:29.233Z,2.35
2022-08-23T06:48:57.551Z,1.90
2022-08-23T06:51:27.658Z,1.70
2022-08-23T06:53:55.240Z,1.80
2022-08-23T06:56:23.173Z,2.83
2022-08-23T06:58:50.800Z,2.60
2022-08-23T07:03:56.797Z,1.65
2022-08-23T07:06:24.594Z,1.33
2022-08-23T07:08:51.715Z,1.60
2022-08-23T07:11:20.691Z,1.60
2022-08-23T07:13:48.020Z,1.48
2022-08-23T07:16:17.900Z,1.88
2022-08-23T07:18:45.849Z,2.00
2022-08-23T07:21:13.724Z,1.70
2022-08-23T07:23:44.836Z,1.98
2022-08-23T07:26:16.251Z,1.70
2022-08-23T07:28:43.781Z,1.85
2022-08-23T07:33:49.214Z,2.00
2022-08-23T07:36:18.324Z,2.17
2022-08-23T07:38:46.031Z,2.13
2022-08-23T07:41:13.579Z,1.77
2022-08-23T07:43:41.214Z,2.30
2022-08-23T07:46:09.387Z,1.70
2022-08-23T07:48:53.934Z,1.60
2022-08-23T07:51:21.944Z,1.90
2022-08-23T07:53:48.888Z,2.03
2022-08-23T07:56:16.927Z,2.10
2022-08-23T07:58:44.084Z,2.63
2022-08-23T08:01:15.523Z,2.30
2022-08-23T08:03:43.727Z,2.30
2022-08-23T08:06:12.618Z,2.50
2022-08-23T08:08:40.934Z,2.03
2022-08-23T08:11:10.754Z,2.40
2022-08-23T08:13:38.893Z,1.90
2022-08-23T08:16:06.128Z,2.42
2022-08-23T08:18:33.207Z,2.30
2022-08-23T08:21:00.980Z,2.30
2022-08-23T08:23:29.118Z,2.20
2022-08-23T08:26:01.200Z,2.00
2022-08-23T08:28:28.188Z,2.20
2022-08-23T08:30:55.260Z,2.20
2022-08-23T08:33:22.250Z,1.90
2022-08-23T08:35:59.223Z,2.08
2022-08-23T08:38:30.692Z,1.90
2022-08-23T08:41:02.396Z,2.20
2022-08-23T08:43:49.342Z,2.13
2022-08-23T08:46:24.367Z,2.10
2022-08-23T08:48:53.973Z,2.00
2022-08-23T08:53:59.813Z,2.00
2022-08-23T08:56:32.697Z,1.60
2022-08-23T08:59:01.829Z,1.42
2022-08-23T09:01:29.572Z,1.25
2022-08-23T09:03:57.374Z,1.15
2022-08-23T09:06:29.187Z,1.10
2022-08-23T09:09:16.112Z,1.00
2022-08-23T09:11:56.780Z,0.90
2022-08-23T09:17:05.652Z,1.35
2022-08-23T09:19:35.169Z,1.40
2022-08-23T09:22:05.181Z,1.30
2022-08-23T09:24:32.113Z,1.33
2022-08-23T09:26:59.515Z,1.30
2022-08-23T09:29:28.583Z,1.10
2022-08-23T09:31:58.404Z,1.23
2022-08-23T09:37:14.396Z,1.20
2022-08-23T09:39:43.178Z,1.10
2022-08-23T09:42:27.058Z,1.10
2022-08-23T09:44:54.720Z,1.23
2022-08-23T09:47:23.642Z,1.20
2022-08-23T09:49:51.955Z,1.17
2022-08-23T09:52:22.369Z,1.30
2022-08-23T09:54:58.991Z,1.20
2022-08-23T09:57:27.975Z,1.08
2022-08-23T09:59:57.504Z,1.40
2022-08-23T10:02:27.569Z,1.10
2022-08-23T10:10:18.628Z,0.70
2022-08-23T10:12:46.290Z,0.85
2022-08-23T10:15:14.982Z,0.90
2022-08-23T10:18:02.980Z,1.00
2022-08-23T10:23:27.634Z,0.95
2022-08-23T10:25:54.645Z,0.90
2022-08-23T10:28:51.353Z,0.90
2022-08-23T10:31:38.751Z,0.60
2022-08-23T10:34:25.646Z,0.80
2022-08-23T10:37:04.728Z,0.60
2022-08-23T10:39:32.001Z,0.60
2022-08-23T10:44:44.328Z,0.63
2022-08-23T10:49:51.584Z,1.40
2022-08-23T10:52:22.206Z,0.90
2022-08-23T10:55:00.937Z,1.00
2022-08-23T10:57:33.308Z,1.67
2022-08-23T11:00:00.805Z,2.00
2022-08-23T11:02:49.630Z,1.83
2022-08-23T11:05:21.458Z,1.95
2022-08-23T11:07:58.538Z,1.58
2022-08-23T11:10:30.816Z,1.60
2022-08-23T11:15:55.111Z,1.60
2022-08-23T11:18:42.539Z,1.60
2022-08-23T11:32:11.839Z,0.90
2022-08-23T11:34:59.659Z,0.90
2022-08-23T11:37:29.330Z,0.77
2022-08-23T11:45:34.884Z,0.60
2022-08-23T11:48:19.457Z,0.80
2022-08-23T11:51:06.407Z,1.20
2022-08-23T11:53:53.282Z,0.80
2022-08-23T11:56:44.401Z,0.77
2022-08-23T11:59:23.817Z,0.63
2022-08-23T12:01:51.067Z,0.52
2022-08-23T12:04:42.239Z,0.60
2022-08-23T12:07:13.022Z,0.50
2022-08-23T12:12:28.474Z,0.40
2022-08-23T12:14:57.877Z,0.40
2022-08-23T12:20:16.975Z,0.30
2022-08-23T12:25:38.560Z,1.08
2022-08-23T12:28:09.189Z,1.45
2022-08-23T12:30:44.139Z,1.60
2022-08-23T12:33:22.257Z,1.50
